Time;durP1;ratioP1;P1;durP2;ratioP2;P2;SDS_P1;SDS_P2;PMS_P1;PMS_P2;Temp;Humidity;BMP_temperature;BMP_pressure;BME280_temperature;BME280_humidity;BME280_pressure;Samples;Min_cycle;Max_cycle;Signal;HPM_P1;HPM_P2
2019/06/07 00:00:09;;;;;;;6.9;6.199999;;;;;;;13.02;80.51855;95168.35;;;;
2019/06/07 00:01:11;;;;;;;6.9;6.199999;;;;;;;13.02;80.51855;95168.35;;;;
2019/06/07 00:02:12;;;;;;;6.9;6.199999;;;;;;;13.02;80.51855;95168.35;;;;
2019/06/07 00:03:13;;;;;;;6.9;6.199999;;;;;;;13.02;80.51855;95168.35;;;;
2019/06/07 00:04:14;;;;;;;6.9;6.199999;;;;;;;13.02;80.51855;95168.35;;;;
2019/06/07 00:05:16;;;;;;;6.9;6.199999;;;;;;;13.02;80.51855;95168.35;;;;
2019/06/07 00:06:17;;;;;;;6.9;6.199999;;;;;;;13.02;80.51855;95168.35;;;;
2019/06/07 00:07:18;;;;;;;6.9;6.199999;;;;;;;13.02;80.51855;95168.35;;;;
2019/06/07 00:08:19;;;;;;;6.9;6.199999;;;;;;;13.02;80.51855;95168.35;;;;
2019/06/07 00:09:20;;;;;;;6.9;6.199999;;;;;;;13.02;80.51855;95168.35;;;;
2019/06/07 00:10:21;;;;;;;6.75;6.050001;;;;;;;13.1;80.55371;95156.22;;;;
2019/06/07 00:11:22;;;;;;;6.75;6.050001;;;;;;;13.1;80.55371;95156.22;;;;
2019/06/07 00:12:23;;;;;;;6.75;6.050001;;;;;;;13.1;80.55371;95156.22;;;;
2019/06/07 00:13:24;;;;;;;6.75;6.050001;;;;;;;13.1;80.55371;95156.22;;;;
2019/06/07 00:14:25;;;;;;;6.75;6.050001;;;;;;;13.1;80.55371;95156.22;;;;
2019/06/07 00:15:26;;;;;;;6.75;6.050001;;;;;;;13.1;80.55371;95156.22;;;;
2019/06/07 00:16:27;;;;;;;6.75;6.050001;;;;;;;13.1;80.55371;95156.22;;;;
2019/06/07 00:17:28;;;;;;;6.75;6.050001;;;;;;;13.1;80.55371;95156.22;;;;
2019/06/07 00:18:29;;;;;;;6.75;6.050001;;;;;;;13.1;80.55371;95156.22;;;;
2019/06/07 00:19:31;;;;;;;6.75;6.050001;;;;;;;13.1;80.55371;95156.22;;;;
2019/06/07 00:20:32;;;;;;;6.75;6.050001;;;;;;;13.1;80.55371;95156.22;;;;
2019/06/07 00:21:33;;;;;;;7.300001;6.599999;;;;;;;13.09;80.57324;95138.75;;;;
2019/06/07 00:22:34;;;;;;;7.300001;6.599999;;;;;;;13.09;80.57324;95138.75;;;;
2019/06/07 00:23:35;;;;;;;7.300001;6.599999;;;;;;;13.09;80.57324;95138.75;;;;
2019/06/07 00:24:36;;;;;;;7.300001;6.599999;;;;;;;13.09;80.57324;95138.75;;;;
2019/06/07 00:25:37;;;;;;;7.300001;6.599999;;;;;;;13.09;80.57324;95138.75;;;;
2019/06/07 00:26:38;;;;;;;7.300001;6.599999;;;;;;;13.09;80.57324;95138.75;;;;
2019/06/07 00:27:39;;;;;;;7.300001;6.599999;;;;;;;13.09;80.57324;95138.75;;;;
2019/06/07 00:28:40;;;;;;;7.300001;6.599999;;;;;;;13.09;80.57324;95138.75;;;;
2019/06/07 00:29:41;;;;;;;7.300001;6.599999;;;;;;;13.09;80.57324;95138.75;;;;
2019/06/07 00:30:42;;;;;;;7.300001;6.599999;;;;;;;13.09;80.57324;95138.75;;;;
2019/06/07 00:31:43;;;;;;;7.300001;6.599999;;;;;;;13.09;80.57324;95138.75;;;;
2019/06/07 00:32:44;;;;;;;7.300001;6.599999;;;;;;;13.09;80.57324;95138.75;;;;
2019/06/07 00:33:46;;;;;;;7.300001;6.599999;;;;;;;13.09;80.57324;95138.75;;;;
2019/06/07 00:34:47;;;;;;;7.300001;6.599999;;;;;;;13.09;80.57324;95138.75;;;;
2019/06/07 00:35:48;;;;;;;7.300001;6.599999;;;;;;;13.09;80.57324;95138.75;;;;
2019/06/07 00:36:49;;;;;;;7.300001;6.599999;;;;;;;13.09;80.57324;95138.75;;;;
2019/06/07 00:37:50;;;;;;;7.300001;6.599999;;;;;;;13.09;80.57324;95138.75;;;;
2019/06/07 00:38:51;;;;;;;7.300001;6.599999;;;;;;;13.09;80.57324;95138.75;;;;
2019/06/07 00:39:52;;;;;;;7.300001;6.599999;;;;;;;13.09;80.57324;95138.75;;;;
2019/06/07 00:40:53;;;;;;;7.300001;6.599999;;;;;;;13.09;80.57324;95138.75;;;;
2019/06/07 00:41:54;;;;;;;7.300001;6.599999;;;;;;;13.09;80.57324;95138.75;;;;
2019/06/07 00:42:55;;;;;;;7.7;6.849999;;;;;;;12.84;80.85059;95124.31;;;;
2019/06/07 00:43:56;;;;;;;7.7;6.849999;;;;;;;12.84;80.85059;95124.31;;;;
2019/06/07 00:44:57;;;;;;;7.7;6.849999;;;;;;;12.84;80.85059;95124.31;;;;
2019/06/07 00:45:58;;;;;;;7.7;6.849999;;;;;;;12.84;80.85059;95124.31;;;;
2019/06/07 00:46:59;;;;;;;7.7;6.849999;;;;;;;12.84;80.85059;95124.31;;;;
2019/06/07 00:48:00;;;;;;;7.7;6.849999;;;;;;;12.84;80.85059;95124.31;;;;
2019/06/07 00:49:01;;;;;;;7.7;6.849999;;;;;;;12.84;80.85059;95124.31;;;;
2019/06/07 00:50:02;;;;;;;7.7;6.849999;;;;;;;12.84;80.85059;95124.31;;;;
2019/06/07 00:51:04;;;;;;;7.7;6.849999;;;;;;;12.84;80.85059;95124.31;;;;
2019/06/07 00:52:05;;;;;;;7.7;6.849999;;;;;;;12.84;80.85059;95124.31;;;;
2019/06/07 00:53:06;;;;;;;10.35;8.349999;;;;;;;12.79;81.30176;95104.51;;;;
2019/06/07 00:54:07;;;;;;;10.35;8.349999;;;;;;;12.79;81.30176;95104.51;;;;
2019/06/07 00:55:08;;;;;;;10.35;8.349999;;;;;;;12.79;81.30176;95104.51;;;;
2019/06/07 00:56:09;;;;;;;10.35;8.349999;;;;;;;12.79;81.30176;95104.51;;;;
2019/06/07 00:57:10;;;;;;;10.35;8.349999;;;;;;;12.79;81.30176;95104.51;;;;
2019/06/07 00:58:11;;;;;;;10.35;8.349999;;;;;;;12.79;81.30176;95104.51;;;;
2019/06/07 00:59:12;;;;;;;10.35;8.349999;;;;;;;12.79;81.30176;95104.51;;;;
2019/06/07 01:00:13;;;;;;;10.35;8.349999;;;;;;;12.79;81.30176;95104.51;;;;
2019/06/07 01:01:14;;;;;;;10.35;8.349999;;;;;;;12.79;81.30176;95104.51;;;;
2019/06/07 01:02:16;;;;;;;10.35;8.349999;;;;;;;12.79;81.30176;95104.51;;;;
2019/06/07 01:03:17;;;;;;;11.75;9.9;;;;;;;12.62;81.44141;95087.5;;;;
2019/06/07 01:04:18;;;;;;;11.75;9.9;;;;;;;12.62;81.44141;95087.5;;;;
2019/06/07 01:05:19;;;;;;;11.75;9.9;;;;;;;12.62;81.44141;95087.5;;;;
2019/06/07 01:06:20;;;;;;;11.75;9.9;;;;;;;12.62;81.44141;95087.5;;;;
2019/06/07 01:07:21;;;;;;;11.75;9.9;;;;;;;12.62;81.44141;95087.5;;;;
2019/06/07 01:08:22;;;;;;;11.75;9.9;;;;;;;12.62;81.44141;95087.5;;;;
2019/06/07 01:09:23;;;;;;;11.75;9.9;;;;;;;12.62;81.44141;95087.5;;;;
2019/06/07 01:10:24;;;;;;;11.75;9.9;;;;;;;12.62;81.44141;95087.5;;;;
2019/06/07 01:11:26;;;;;;;11.75;9.9;;;;;;;12.62;81.44141;95087.5;;;;
2019/06/07 01:12:27;;;;;;;11.75;9.9;;;;;;;12.62;81.44141;95087.5;;;;
2019/06/07 01:13:28;;;;;;;11.75;9.9;;;;;;;12.62;81.44141;95087.5;;;;
2019/06/07 01:14:29;;;;;;;11.15;9.8;;;;;;;12.42;81.8125;95076.42;;;;
2019/06/07 01:15:30;;;;;;;11.15;9.8;;;;;;;12.42;81.8125;95076.42;;;;
2019/06/07 01:16:31;;;;;;;11.15;9.8;;;;;;;12.42;81.8125;95076.42;;;;
2019/06/07 01:17:33;;;;;;;11.15;9.8;;;;;;;12.42;81.8125;95076.42;;;;
2019/06/07 01:18:34;;;;;;;11.15;9.8;;;;;;;12.42;81.8125;95076.42;;;;
2019/06/07 01:19:35;;;;;;;11.15;9.8;;;;;;;12.42;81.8125;95076.42;;;;
2019/06/07 01:20:36;;;;;;;11.15;9.8;;;;;;;12.42;81.8125;95076.42;;;;
2019/06/07 01:21:37;;;;;;;11.15;9.8;;;;;;;12.42;81.8125;95076.42;;;;
2019/06/07 01:22:39;;;;;;;11.15;9.8;;;;;;;12.42;81.8125;95076.42;;;;
2019/06/07 01:23:40;;;;;;;11.15;9.8;;;;;;;12.42;81.8125;95076.42;;;;
2019/06/07 01:24:41;;;;;;;12.7;10.5;;;;;;;12.09;82.40625;95067.33;;;;
2019/06/07 01:25:42;;;;;;;12.7;10.5;;;;;;;12.09;82.40625;95067.33;;;;
2019/06/07 01:26:43;;;;;;;12.7;10.5;;;;;;;12.09;82.40625;95067.33;;;;
2019/06/07 01:27:44;;;;;;;12.7;10.5;;;;;;;12.09;82.40625;95067.33;;;;
2019/06/07 01:28:46;;;;;;;12.7;10.5;;;;;;;12.09;82.40625;95067.33;;;;
2019/06/07 01:29:47;;;;;;;12.7;10.5;;;;;;;12.09;82.40625;95067.33;;;;
2019/06/07 01:30:48;;;;;;;12.7;10.5;;;;;;;12.09;82.40625;95067.33;;;;
2019/06/07 01:31:50;;;;;;;12.7;10.5;;;;;;;12.09;82.40625;95067.33;;;;
2019/06/07 01:32:51;;;;;;;12.7;10.5;;;;;;;12.09;82.40625;95067.33;;;;
2019/06/07 01:33:52;;;;;;;12.7;10.5;;;;;;;12.09;82.40625;95067.33;;;;
2019/06/07 01:34:54;;;;;;;12.7;10.5;;;;;;;12.09;82.40625;95067.33;;;;
2019/06/07 01:35:55;;;;;;;11.45;10.25;;;;;;;11.85;82.93848;95056.05;;;;
2019/06/07 01:36:56;;;;;;;11.45;10.25;;;;;;;11.85;82.93848;95056.05;;;;
2019/06/07 01:37:57;;;;;;;11.45;10.25;;;;;;;11.85;82.93848;95056.05;;;;
2019/06/07 01:38:58;;;;;;;11.45;10.25;;;;;;;11.85;82.93848;95056.05;;;;
2019/06/07 01:39:59;;;;;;;11.45;10.25;;;;;;;11.85;82.93848;95056.05;;;;
2019/06/07 01:41:00;;;;;;;11.45;10.25;;;;;;;11.85;82.93848;95056.05;;;;
2019/06/07 01:42:02;;;;;;;11.45;10.25;;;;;;;11.85;82.93848;95056.05;;;;
2019/06/07 01:43:03;;;;;;;11.45;10.25;;;;;;;11.85;82.93848;95056.05;;;;
2019/06/07 01:44:04;;;;;;;11.45;10.25;;;;;;;11.85;82.93848;95056.05;;;;
2019/06/07 01:45:05;;;;;;;11.45;10.25;;;;;;;11.85;82.93848;95056.05;;;;
2019/06/07 01:46:06;;;;;;;12;9.950001;;;;;;;11.48;83.43359;95046.8;;;;
2019/06/07 01:47:08;;;;;;;12;9.950001;;;;;;;11.48;83.43359;95046.8;;;;
2019/06/07 01:48:09;;;;;;;12;9.950001;;;;;;;11.48;83.43359;95046.8;;;;
2019/06/07 01:49:10;;;;;;;12;9.950001;;;;;;;11.48;83.43359;95046.8;;;;
2019/06/07 01:50:11;;;;;;;12;9.950001;;;;;;;11.48;83.43359;95046.8;;;;
2019/06/07 01:51:12;;;;;;;12;9.950001;;;;;;;11.48;83.43359;95046.8;;;;
2019/06/07 01:52:14;;;;;;;12;9.950001;;;;;;;11.48;83.43359;95046.8;;;;
2019/06/07 01:53:15;;;;;;;12;9.950001;;;;;;;11.48;83.43359;95046.8;;;;
2019/06/07 01:54:16;;;;;;;12;9.950001;;;;;;;11.48;83.43359;95046.8;;;;
2019/06/07 01:55:17;;;;;;;12;9.950001;;;;;;;11.48;83.43359;95046.8;;;;
2019/06/07 01:56:18;;;;;;;10.95;9.8;;;;;;;11.2;84.03418;95035.14;;;;
2019/06/07 01:57:19;;;;;;;10.95;9.8;;;;;;;11.2;84.03418;95035.14;;;;
2019/06/07 01:58:21;;;;;;;10.95;9.8;;;;;;;11.2;84.03418;95035.14;;;;
2019/06/07 01:59:22;;;;;;;10.95;9.8;;;;;;;11.2;84.03418;95035.14;;;;
2019/06/07 02:00:23;;;;;;;10.95;9.8;;;;;;;11.2;84.03418;95035.14;;;;
2019/06/07 02:01:24;;;;;;;10.95;9.8;;;;;;;11.2;84.03418;95035.14;;;;
2019/06/07 02:02:25;;;;;;;10.95;9.8;;;;;;;11.2;84.03418;95035.14;;;;
2019/06/07 02:03:27;;;;;;;10.95;9.8;;;;;;;11.2;84.03418;95035.14;;;;
2019/06/07 02:04:28;;;;;;;10.95;9.8;;;;;;;11.2;84.03418;95035.14;;;;
2019/06/07 02:05:29;;;;;;;10.95;9.8;;;;;;;11.2;84.03418;95035.14;;;;
2019/06/07 02:06:30;;;;;;;10.95;9.8;;;;;;;11.2;84.03418;95035.14;;;;
2019/06/07 02:07:31;;;;;;;10.85;9.749999;;;;;;;10.89;84.57227;95037.87;;;;
2019/06/07 02:08:32;;;;;;;10.85;9.749999;;;;;;;10.89;84.57227;95037.87;;;;
2019/06/07 02:09:33;;;;;;;10.85;9.749999;;;;;;;10.89;84.57227;95037.87;;;;
2019/06/07 02:10:34;;;;;;;10.85;9.749999;;;;;;;10.89;84.57227;95037.87;;;;
2019/06/07 02:11:36;;;;;;;10.85;9.749999;;;;;;;10.89;84.57227;95037.87;;;;
2019/06/07 02:12:37;;;;;;;10.85;9.749999;;;;;;;10.89;84.57227;95037.87;;;;
2019/06/07 02:13:38;;;;;;;10.85;9.749999;;;;;;;10.89;84.57227;95037.87;;;;
2019/06/07 02:14:39;;;;;;;10.85;9.749999;;;;;;;10.89;84.57227;95037.87;;;;
2019/06/07 02:15:40;;;;;;;10.85;9.749999;;;;;;;10.89;84.57227;95037.87;;;;
2019/06/07 02:16:41;;;;;;;10.85;9.749999;;;;;;;10.89;84.57227;95037.87;;;;
2019/06/07 02:17:42;;;;;;;10.95;9.45;;;;;;;10.69;85.39844;95020.88;;;;
2019/06/07 02:18:43;;;;;;;10.95;9.45;;;;;;;10.69;85.39844;95020.88;;;;
2019/06/07 02:19:45;;;;;;;10.95;9.45;;;;;;;10.69;85.39844;95020.88;;;;
2019/06/07 02:20:46;;;;;;;10.95;9.45;;;;;;;10.69;85.39844;95020.88;;;;
2019/06/07 02:21:47;;;;;;;10.95;9.45;;;;;;;10.69;85.39844;95020.88;;;;
2019/06/07 02:22:48;;;;;;;10.95;9.45;;;;;;;10.69;85.39844;95020.88;;;;
2019/06/07 02:23:50;;;;;;;10.95;9.45;;;;;;;10.69;85.39844;95020.88;;;;
2019/06/07 02:24:51;;;;;;;10.95;9.45;;;;;;;10.69;85.39844;95020.88;;;;
2019/06/07 02:25:52;;;;;;;10.95;9.45;;;;;;;10.69;85.39844;95020.88;;;;
2019/06/07 02:26:53;;;;;;;10.95;9.45;;;;;;;10.69;85.39844;95020.88;;;;
2019/06/07 02:27:54;;;;;;;11.85;10.6;;;;;;;10.49;85.91211;95020.51;;;;
2019/06/07 02:28:56;;;;;;;11.85;10.6;;;;;;;10.49;85.91211;95020.51;;;;
2019/06/07 02:29:57;;;;;;;11.85;10.6;;;;;;;10.49;85.91211;95020.51;;;;
2019/06/07 02:30:58;;;;;;;11.85;10.6;;;;;;;10.49;85.91211;95020.51;;;;
2019/06/07 02:31:59;;;;;;;11.85;10.6;;;;;;;10.49;85.91211;95020.51;;;;
2019/06/07 02:33:00;;;;;;;11.85;10.6;;;;;;;10.49;85.91211;95020.51;;;;
2019/06/07 02:34:01;;;;;;;11.85;10.6;;;;;;;10.49;85.91211;95020.51;;;;
2019/06/07 02:35:02;;;;;;;11.85;10.6;;;;;;;10.49;85.91211;95020.51;;;;
2019/06/07 02:36:04;;;;;;;11.85;10.6;;;;;;;10.49;85.91211;95020.51;;;;
2019/06/07 02:37:05;;;;;;;11.85;10.6;;;;;;;10.49;85.91211;95020.51;;;;
2019/06/07 02:38:06;;;;;;;11.85;10.6;;;;;;;10.49;85.91211;95020.51;;;;
2019/06/07 02:39:07;;;;;;;11.8;10.4;;;;;;;10.35;86.52344;95013.35;;;;
2019/06/07 02:40:08;;;;;;;11.8;10.4;;;;;;;10.35;86.52344;95013.35;;;;
2019/06/07 02:41:10;;;;;;;11.8;10.4;;;;;;;10.35;86.52344;95013.35;;;;
2019/06/07 02:42:11;;;;;;;11.8;10.4;;;;;;;10.35;86.52344;95013.35;;;;
2019/06/07 02:43:12;;;;;;;11.8;10.4;;;;;;;10.35;86.52344;95013.35;;;;
2019/06/07 02:44:13;;;;;;;11.8;10.4;;;;;;;10.35;86.52344;95013.35;;;;
2019/06/07 02:45:14;;;;;;;11.8;10.4;;;;;;;10.35;86.52344;95013.35;;;;
2019/06/07 02:46:23;;;;;;;11.8;10.4;;;;;;;10.35;86.52344;95013.35;;;;
2019/06/07 02:47:24;;;;;;;11.8;10.4;;;;;;;10.35;86.52344;95013.35;;;;
2019/06/07 02:48:25;;;;;;;11.8;10.4;;;;;;;10.35;86.52344;95013.35;;;;
2019/06/07 02:49:26;;;;;;;12.25;10.7;;;;;;;10.13;86.9707;95001.47;;;;
2019/06/07 02:50:27;;;;;;;12.25;10.7;;;;;;;10.13;86.9707;95001.47;;;;
2019/06/07 02:51:28;;;;;;;12.25;10.7;;;;;;;10.13;86.9707;95001.47;;;;
2019/06/07 02:52:29;;;;;;;12.25;10.7;;;;;;;10.13;86.9707;95001.47;;;;
2019/06/07 02:53:30;;;;;;;12.25;10.7;;;;;;;10.13;86.9707;95001.47;;;;
2019/06/07 02:54:32;;;;;;;12.25;10.7;;;;;;;10.13;86.9707;95001.47;;;;
2019/06/07 02:55:33;;;;;;;12.25;10.7;;;;;;;10.13;86.9707;95001.47;;;;
2019/06/07 02:56:34;;;;;;;12.25;10.7;;;;;;;10.13;86.9707;95001.47;;;;
2019/06/07 02:57:35;;;;;;;12.25;10.7;;;;;;;10.13;86.9707;95001.47;;;;
2019/06/07 02:58:36;;;;;;;12.25;10.7;;;;;;;10.13;86.9707;95001.47;;;;
2019/06/07 02:59:37;;;;;;;12.7;9.8;;;;;;;10.04;87.5166;95002.47;;;;
2019/06/07 03:00:38;;;;;;;12.7;9.8;;;;;;;10.04;87.5166;95002.47;;;;
2019/06/07 03:01:41;;;;;;;12.7;9.8;;;;;;;10.04;87.5166;95002.47;;;;
2019/06/07 03:02:42;;;;;;;12.7;9.8;;;;;;;10.04;87.5166;95002.47;;;;
2019/06/07 03:03:43;;;;;;;12.7;9.8;;;;;;;10.04;87.5166;95002.47;;;;
2019/06/07 03:04:44;;;;;;;12.7;9.8;;;;;;;10.04;87.5166;95002.47;;;;
2019/06/07 03:05:45;;;;;;;12.7;9.8;;;;;;;10.04;87.5166;95002.47;;;;
2019/06/07 03:06:46;;;;;;;12.7;9.8;;;;;;;10.04;87.5166;95002.47;;;;
2019/06/07 03:07:47;;;;;;;12.7;9.8;;;;;;;10.04;87.5166;95002.47;;;;
2019/06/07 03:08:48;;;;;;;12.7;9.8;;;;;;;10.04;87.5166;95002.47;;;;
2019/06/07 03:09:49;;;;;;;12.7;9.8;;;;;;;10.04;87.5166;95002.47;;;;
2019/06/07 03:10:50;;;;;;;12.3;9.9;;;;;;;9.95;88.06543;94996.63;;;;
2019/06/07 03:11:52;;;;;;;12.3;9.9;;;;;;;9.95;88.06543;94996.63;;;;
2019/06/07 03:12:53;;;;;;;12.3;9.9;;;;;;;9.95;88.06543;94996.63;;;;
2019/06/07 03:13:54;;;;;;;12.3;9.9;;;;;;;9.95;88.06543;94996.63;;;;
2019/06/07 03:14:55;;;;;;;12.3;9.9;;;;;;;9.95;88.06543;94996.63;;;;
2019/06/07 03:15:58;;;;;;;12.3;9.9;;;;;;;9.95;88.06543;94996.63;;;;
2019/06/07 03:17:13;;;;;;;12.3;9.9;;;;;;;9.95;88.06543;94996.63;;;;
2019/06/07 03:18:50;;;;;;;12.3;9.9;;;;;;;9.95;88.06543;94996.63;;;;
2019/06/07 03:19:54;;;;;;;12.3;9.9;;;;;;;9.95;88.06543;94996.63;;;;
2019/06/07 03:20:55;;;;;;;12.3;9.9;;;;;;;9.95;88.06543;94996.63;;;;
2019/06/07 03:21:57;;;;;;;12.3;9.9;;;;;;;9.95;88.06543;94996.63;;;;
2019/06/07 03:22:58;;;;;;;12.3;9.9;;;;;;;9.95;88.06543;94996.63;;;;
2019/06/07 03:23:59;;;;;;;12.3;9.9;;;;;;;9.95;88.06543;94996.63;;;;
2019/06/07 03:25:00;;;;;;;12.3;9.9;;;;;;;9.95;88.06543;94996.63;;;;
2019/06/07 03:26:02;;;;;;;12.3;9.9;;;;;;;9.95;88.06543;94996.63;;;;
2019/06/07 03:27:04;;;;;;;12.3;9.9;;;;;;;9.95;88.06543;94996.63;;;;
2019/06/07 03:28:05;;;;;;;12.3;9.9;;;;;;;9.95;88.06543;94996.63;;;;
2019/06/07 03:29:06;;;;;;;12.3;9.9;;;;;;;9.95;88.06543;94996.63;;;;
2019/06/07 03:30:07;;;;;;;12.3;9.9;;;;;;;9.95;88.06543;94996.63;;;;
2019/06/07 03:31:08;;;;;;;12.3;9.9;;;;;;;9.95;88.06543;94996.63;;;;
2019/06/07 03:32:09;;;;;;;12.3;9.9;;;;;;;9.95;88.06543;94996.63;;;;
2019/06/07 03:33:10;;;;;;;12.3;9.9;;;;;;;9.95;88.06543;94996.63;;;;
2019/06/07 03:34:11;;;;;;;12.3;9.9;;;;;;;9.95;88.06543;94996.63;;;;
2019/06/07 03:35:12;;;;;;;12.3;9.9;;;;;;;9.95;88.06543;94996.63;;;;
2019/06/07 03:36:13;;;;;;;12.3;9.9;;;;;;;9.95;88.06543;94996.63;;;;
2019/06/07 03:37:14;;;;;;;12.3;9.9;;;;;;;9.95;88.06543;94996.63;;;;
2019/06/07 03:38:15;;;;;;;12.3;9.9;;;;;;;9.95;88.06543;94996.63;;;;
2019/06/07 03:39:16;;;;;;;12.3;9.9;;;;;;;9.95;88.06543;94996.63;;;;
2019/06/07 03:40:17;;;;;;;12.3;9.9;;;;;;;9.95;88.06543;94996.63;;;;
2019/06/07 03:41:18;;;;;;;12.3;9.9;;;;;;;9.95;88.06543;94996.63;;;;
2019/06/07 03:42:19;;;;;;;12.95;11.2;;;;;;;10;89.01074;94994.97;;;;
2019/06/07 03:43:20;;;;;;;12.95;11.2;;;;;;;10;89.01074;94994.97;;;;
2019/06/07 03:44:21;;;;;;;12.95;11.2;;;;;;;10;89.01074;94994.97;;;;
2019/06/07 03:45:23;;;;;;;12.95;11.2;;;;;;;10;89.01074;94994.97;;;;
2019/06/07 03:46:24;;;;;;;12.95;11.2;;;;;;;10;89.01074;94994.97;;;;
2019/06/07 03:47:25;;;;;;;12.95;11.2;;;;;;;10;89.01074;94994.97;;;;
2019/06/07 03:48:26;;;;;;;12.95;11.2;;;;;;;10;89.01074;94994.97;;;;
2019/06/07 03:49:27;;;;;;;12.95;11.2;;;;;;;10;89.01074;94994.97;;;;
2019/06/07 03:50:28;;;;;;;12.95;11.2;;;;;;;10;89.01074;94994.97;;;;
2019/06/07 03:51:29;;;;;;;12.95;11.2;;;;;;;10;89.01074;94994.97;;;;
2019/06/07 03:52:30;;;;;;;12.95;11.2;;;;;;;10;89.01074;94994.97;;;;
2019/06/07 03:53:31;;;;;;;12.95;11.2;;;;;;;10;89.01074;94994.97;;;;
2019/06/07 03:54:32;;;;;;;12.95;11.2;;;;;;;10;89.01074;94994.97;;;;
2019/06/07 03:55:34;;;;;;;12.95;11.2;;;;;;;10;89.01074;94994.97;;;;
2019/06/07 03:56:35;;;;;;;12.95;11.2;;;;;;;10;89.01074;94994.97;;;;
2019/06/07 03:57:36;;;;;;;12.95;11.2;;;;;;;10;89.01074;94994.97;;;;
2019/06/07 03:58:37;;;;;;;12.95;11.2;;;;;;;10;89.01074;94994.97;;;;
2019/06/07 03:59:38;;;;;;;12.95;11.2;;;;;;;10;89.01074;94994.97;;;;
2019/06/07 04:00:39;;;;;;;12.95;11.2;;;;;;;10;89.01074;94994.97;;;;
2019/06/07 04:01:40;;;;;;;12.95;11.2;;;;;;;10;89.01074;94994.97;;;;
2019/06/07 04:02:41;;;;;;;12.95;11.2;;;;;;;10;89.01074;94994.97;;;;
2019/06/07 04:03:42;;;;;;;12.95;11.2;;;;;;;10;89.01074;94994.97;;;;
2019/06/07 04:04:43;;;;;;;12.95;11.2;;;;;;;10;89.01074;94994.97;;;;
2019/06/07 04:05:44;;;;;;;12.95;11.2;;;;;;;10;89.01074;94994.97;;;;
2019/06/07 04:06:45;;;;;;;12.95;11.2;;;;;;;10;89.01074;94994.97;;;;
2019/06/07 04:07:46;;;;;;;12.95;11.2;;;;;;;10;89.01074;94994.97;;;;
2019/06/07 04:08:47;;;;;;;12.95;11.2;;;;;;;10;89.01074;94994.97;;;;
2019/06/07 04:09:48;;;;;;;12.95;11.2;;;;;;;10;89.01074;94994.97;;;;
2019/06/07 04:10:50;;;;;;;12.95;11.2;;;;;;;10;89.01074;94994.97;;;;
2019/06/07 04:11:51;;;;;;;12.95;11.2;;;;;;;10;89.01074;94994.97;;;;
2019/06/07 04:12:52;;;;;;;12.95;11.2;;;;;;;10;89.01074;94994.97;;;;
2019/06/07 04:13:53;;;;;;;12.95;11.2;;;;;;;10;89.01074;94994.97;;;;
2019/06/07 04:14:54;;;;;;;12.95;11.2;;;;;;;10;89.01074;94994.97;;;;
2019/06/07 04:15:55;;;;;;;12.95;11.2;;;;;;;10;89.01074;94994.97;;;;
2019/06/07 04:16:56;;;;;;;12.95;11.2;;;;;;;10;89.01074;94994.97;;;;
2019/06/07 04:17:57;;;;;;;12.95;11.2;;;;;;;10;89.01074;94994.97;;;;
2019/06/07 04:18:58;;;;;;;12.95;11.2;;;;;;;10;89.01074;94994.97;;;;
2019/06/07 04:19:59;;;;;;;12.95;11.2;;;;;;;10;89.01074;94994.97;;;;
2019/06/07 04:21:00;;;;;;;12.95;11.2;;;;;;;10;89.01074;94994.97;;;;
2019/06/07 04:22:01;;;;;;;12.95;11.2;;;;;;;10;89.01074;94994.97;;;;
2019/06/07 04:23:02;;;;;;;12.95;11.2;;;;;;;10;89.01074;94994.97;;;;
2019/06/07 04:24:04;;;;;;;12.95;11.2;;;;;;;10;89.01074;94994.97;;;;
2019/06/07 04:25:05;;;;;;;12.95;11.2;;;;;;;10;89.01074;94994.97;;;;
2019/06/07 04:26:08;;;;;;;12.95;11.2;;;;;;;10;89.01074;94994.97;;;;
2019/06/07 04:46:10;;;;;;;14.75;12.9;;;;;;;11.99;89.87305;95005.5;;;;
2019/06/07 04:47:11;;;;;;;14.75;12.9;;;;;;;11.99;89.87305;95005.5;;;;
2019/06/07 04:48:13;;;;;;;14.75;12.9;;;;;;;11.99;89.87305;95005.5;;;;
2019/06/07 04:49:14;;;;;;;14.75;12.9;;;;;;;11.99;89.87305;95005.5;;;;
2019/06/07 04:50:15;;;;;;;14.75;12.9;;;;;;;11.99;89.87305;95005.5;;;;
2019/06/07 04:51:16;;;;;;;14.75;12.9;;;;;;;11.99;89.87305;95005.5;;;;
2019/06/07 04:52:18;;;;;;;14.75;12.9;;;;;;;11.99;89.87305;95005.5;;;;
2019/06/07 04:53:19;;;;;;;14.75;12.9;;;;;;;11.99;89.87305;95005.5;;;;
2019/06/07 04:54:20;;;;;;;14.75;12.9;;;;;;;11.99;89.87305;95005.5;;;;
2019/06/07 04:55:21;;;;;;;14.75;12.9;;;;;;;11.99;89.87305;95005.5;;;;
2019/06/07 04:56:22;;;;;;;14.75;12.9;;;;;;;11.99;89.87305;95005.5;;;;
2019/06/07 04:57:23;;;;;;;14.75;12.9;;;;;;;11.99;89.87305;95005.5;;;;
2019/06/07 04:58:24;;;;;;;14.75;12.9;;;;;;;11.99;89.87305;95005.5;;;;
2019/06/07 04:59:25;;;;;;;14.75;12.9;;;;;;;11.99;89.87305;95005.5;;;;
2019/06/07 05:00:26;;;;;;;14.75;12.9;;;;;;;11.99;89.87305;95005.5;;;;
2019/06/07 05:01:28;;;;;;;14.75;12.9;;;;;;;11.99;89.87305;95005.5;;;;
2019/06/07 05:02:29;;;;;;;14.75;12.9;;;;;;;11.99;89.87305;95005.5;;;;
2019/06/07 05:03:30;;;;;;;14.75;12.9;;;;;;;11.99;89.87305;95005.5;;;;
2019/06/07 05:04:31;;;;;;;14.75;12.9;;;;;;;11.99;89.87305;95005.5;;;;
2019/06/07 05:05:32;;;;;;;14.75;12.9;;;;;;;11.99;89.87305;95005.5;;;;
2019/06/07 05:06:33;;;;;;;14.75;12.9;;;;;;;11.99;89.87305;95005.5;;;;
2019/06/07 05:07:35;;;;;;;14.75;12.9;;;;;;;11.99;89.87305;95005.5;;;;
2019/06/07 05:08:36;;;;;;;14.75;12.9;;;;;;;11.99;89.87305;95005.5;;;;
2019/06/07 05:09:37;;;;;;;14.75;12.9;;;;;;;11.99;89.87305;95005.5;;;;
2019/06/07 05:10:41;;;;;;;14.75;12.9;;;;;;;11.99;89.87305;95005.5;;;;
2019/06/07 05:11:42;;;;;;;14.75;12.9;;;;;;;11.99;89.87305;95005.5;;;;
2019/06/07 05:12:43;;;;;;;14.75;12.9;;;;;;;11.99;89.87305;95005.5;;;;
2019/06/07 05:13:44;;;;;;;14.75;12.9;;;;;;;11.99;89.87305;95005.5;;;;
2019/06/07 05:14:45;;;;;;;14.75;12.9;;;;;;;11.99;89.87305;95005.5;;;;
2019/06/07 05:15:46;;;;;;;14.75;12.9;;;;;;;11.99;89.87305;95005.5;;;;
2019/06/07 05:16:47;;;;;;;14.75;12.9;;;;;;;11.99;89.87305;95005.5;;;;
2019/06/07 05:17:48;;;;;;;14.75;12.9;;;;;;;11.99;89.87305;95005.5;;;;
2019/06/07 05:18:49;;;;;;;14.75;12.9;;;;;;;11.99;89.87305;95005.5;;;;
2019/06/07 05:19:51;;;;;;;14.75;12.9;;;;;;;11.99;89.87305;95005.5;;;;
2019/06/07 05:20:52;;;;;;;14.75;12.9;;;;;;;11.99;89.87305;95005.5;;;;
2019/06/07 05:21:53;;;;;;;14.75;12.9;;;;;;;11.99;89.87305;95005.5;;;;
2019/06/07 05:22:54;;;;;;;14.75;12.9;;;;;;;11.99;89.87305;95005.5;;;;
2019/06/07 05:23:55;;;;;;;14.75;12.9;;;;;;;11.99;89.87305;95005.5;;;;
2019/06/07 05:24:56;;;;;;;14.75;12.9;;;;;;;11.99;89.87305;95005.5;;;;
2019/06/07 05:25:57;;;;;;;14.75;12.9;;;;;;;11.99;89.87305;95005.5;;;;
2019/06/07 05:26:58;;;;;;;14.75;12.9;;;;;;;11.99;89.87305;95005.5;;;;
2019/06/07 05:27:59;;;;;;;14.75;12.9;;;;;;;11.99;89.87305;95005.5;;;;
2019/06/07 05:29:00;;;;;;;14.75;12.9;;;;;;;11.99;89.87305;95005.5;;;;
2019/06/07 05:30:01;;;;;;;14.75;12.9;;;;;;;11.99;89.87305;95005.5;;;;
2019/06/07 06:53:08;;;;;;;11.15;9.450001;;;;;;;19.09;81.07227;94974.41;;;;
2019/06/07 06:54:09;;;;;;;11.15;9.450001;;;;;;;19.09;81.07227;94974.41;;;;
2019/06/07 06:55:10;;;;;;;11.15;9.450001;;;;;;;19.09;81.07227;94974.41;;;;
2019/06/07 06:56:11;;;;;;;11.15;9.450001;;;;;;;19.09;81.07227;94974.41;;;;
2019/06/07 06:57:13;;;;;;;11.15;9.450001;;;;;;;19.09;81.07227;94974.41;;;;
2019/06/07 06:58:14;;;;;;;11.15;9.450001;;;;;;;19.09;81.07227;94974.41;;;;
2019/06/07 06:59:15;;;;;;;11.15;9.450001;;;;;;;19.09;81.07227;94974.41;;;;
2019/06/07 07:00:16;;;;;;;11.15;9.450001;;;;;;;19.09;81.07227;94974.41;;;;
2019/06/07 07:01:44;;;;;;;11.15;9.450001;;;;;;;19.09;81.07227;94974.41;;;;
2019/06/07 07:02:45;;;;;;;11.15;9.450001;;;;;;;19.09;81.07227;94974.41;;;;
2019/06/07 07:03:46;;;;;;;11.15;9.450001;;;;;;;19.09;81.07227;94974.41;;;;
2019/06/07 07:04:47;;;;;;;11.15;9.450001;;;;;;;19.09;81.07227;94974.41;;;;
2019/06/07 07:05:48;;;;;;;11.15;9.450001;;;;;;;19.09;81.07227;94974.41;;;;
2019/06/07 07:06:51;;;;;;;11.15;9.450001;;;;;;;19.09;81.07227;94974.41;;;;
2019/06/07 07:07:52;;;;;;;11.15;9.450001;;;;;;;19.09;81.07227;94974.41;;;;
2019/06/07 07:08:53;;;;;;;11.15;9.450001;;;;;;;19.09;81.07227;94974.41;;;;
2019/06/07 07:09:54;;;;;;;11.15;9.450001;;;;;;;19.09;81.07227;94974.41;;;;
2019/06/07 07:10:55;;;;;;;11.15;9.450001;;;;;;;19.09;81.07227;94974.41;;;;
2019/06/07 07:11:56;;;;;;;11.15;9.450001;;;;;;;19.09;81.07227;94974.41;;;;
2019/06/07 07:12:57;;;;;;;11.15;9.450001;;;;;;;19.09;81.07227;94974.41;;;;
2019/06/07 07:13:58;;;;;;;11.15;9.450001;;;;;;;19.09;81.07227;94974.41;;;;
2019/06/07 07:14:59;;;;;;;11.15;9.450001;;;;;;;19.09;81.07227;94974.41;;;;
2019/06/07 07:16:01;;;;;;;11.15;9.450001;;;;;;;19.09;81.07227;94974.41;;;;
2019/06/07 07:17:02;;;;;;;11.15;9.450001;;;;;;;19.09;81.07227;94974.41;;;;
2019/06/07 07:18:03;;;;;;;11.15;9.450001;;;;;;;19.09;81.07227;94974.41;;;;
2019/06/07 07:19:04;;;;;;;11.15;9.450001;;;;;;;19.09;81.07227;94974.41;;;;
2019/06/07 07:20:05;;;;;;;11.15;9.450001;;;;;;;19.09;81.07227;94974.41;;;;
2019/06/07 07:21:06;;;;;;;11.15;9.450001;;;;;;;19.09;81.07227;94974.41;;;;
2019/06/07 07:22:07;;;;;;;11.15;9.450001;;;;;;;19.09;81.07227;94974.41;;;;